createdAt,value
2023-03-11T00:01:57.889Z,61.09
2023-03-11T00:06:59.783Z,61.10
2023-03-11T00:12:02.642Z,59.86
2023-03-11T00:17:04.307Z,59.47
2023-03-11T00:22:06.438Z,59.40
2023-03-11T00:27:08.234Z,60.00
2023-03-11T00:32:09.966Z,60.24
2023-03-11T00:37:11.987Z,60.49
2023-03-11T00:42:13.616Z,60.76
2023-03-11T00:47:15.240Z,60.73
2023-03-11T00:52:17.062Z,63.00
2023-03-11T00:57:18.620Z,66.43
2023-03-11T01:02:20.872Z,68.12
2023-03-11T01:07:23.900Z,68.67
2023-03-11T01:12:25.685Z,69.74
2023-03-11T01:17:27.379Z,70.09
2023-03-11T01:22:29.004Z,69.35
2023-03-11T01:27:31.092Z,68.57
2023-03-11T01:32:32.912Z,67.41
2023-03-11T01:37:34.735Z,66.91
2023-03-11T01:42:36.438Z,66.04
2023-03-11T01:47:40.095Z,65.15
2023-03-11T01:52:44.904Z,64.16
2023-03-11T01:57:47.805Z,63.46
2023-03-11T02:02:55.511Z,62.80
2023-03-11T02:07:58.238Z,62.77
2023-03-11T02:13:04.474Z,62.74
2023-03-11T02:18:08.278Z,61.51
2023-03-11T02:23:13.139Z,59.96
2023-03-11T02:28:18.163Z,55.91
2023-03-11T02:33:20.103Z,54.56
2023-03-11T02:38:24.272Z,55.40
2023-03-11T02:43:43.479Z,55.63
2023-03-11T02:48:47.835Z,55.93
2023-03-11T02:53:53.059Z,55.70
2023-03-11T02:58:55.903Z,55.27
2023-03-11T03:03:57.992Z,55.43
2023-03-11T03:09:00.184Z,54.71
2023-03-11T03:14:01.964Z,54.82
2023-03-11T03:19:03.772Z,54.83
2023-03-11T03:24:05.841Z,54.97
2023-03-11T03:29:07.812Z,55.44
2023-03-11T03:34:10.022Z,55.73
2023-03-11T03:39:12.052Z,56.25
2023-03-11T03:44:13.732Z,56.24
2023-03-11T03:49:15.665Z,56.91
2023-03-11T03:54:18.736Z,57.21
2023-03-11T03:59:20.566Z,56.95
2023-03-11T04:04:27.407Z,57.02
2023-03-11T04:09:29.977Z,56.89
2023-03-11T04:14:31.756Z,57.14
2023-03-11T04:19:35.738Z,56.91
2023-03-11T04:24:37.699Z,57.17
2023-03-11T04:29:39.589Z,56.45
2023-03-11T04:34:42.019Z,56.65
2023-03-11T04:39:44.159Z,55.33
2023-03-11T04:44:46.029Z,55.25
2023-03-11T04:49:47.725Z,54.20
2023-03-11T04:54:49.468Z,54.27
2023-03-11T04:59:52.642Z,54.42
2023-03-11T05:04:54.404Z,53.99
2023-03-11T05:09:56.186Z,53.64
2023-03-11T05:14:58.351Z,53.49
2023-03-11T05:20:00.285Z,52.59
2023-03-11T05:25:07.449Z,52.87
2023-03-11T05:30:10.135Z,53.09
2023-03-11T05:35:15.062Z,53.16
2023-03-11T05:40:17.320Z,53.41
2023-03-11T05:45:19.587Z,53.43
2023-03-11T05:50:24.329Z,53.16
2023-03-11T05:55:27.533Z,53.19
2023-03-11T06:00:29.835Z,53.02
2023-03-11T06:05:35.665Z,52.63
2023-03-11T06:10:37.885Z,53.00
2023-03-11T06:15:39.937Z,52.19
2023-03-11T06:20:41.897Z,52.23
2023-03-11T06:25:43.699Z,52.00
2023-03-11T06:30:46.196Z,52.17
2023-03-11T06:36:00.908Z,51.61
2023-03-11T06:41:04.987Z,51.19
2023-03-11T06:46:13.507Z,51.17
2023-03-11T06:51:15.921Z,50.85
2023-03-11T06:56:19.328Z,51.06
2023-03-11T07:01:26.395Z,51.26
2023-03-11T07:06:30.175Z,50.76
2023-03-11T07:11:38.586Z,51.47
2023-03-11T07:16:45.466Z,50.85
2023-03-11T07:22:02.538Z,50.17
2023-03-11T07:27:04.402Z,50.54
2023-03-11T07:32:09.396Z,50.86
2023-03-11T07:37:11.214Z,50.56
2023-03-11T07:42:12.848Z,50.28
2023-03-11T07:47:14.480Z,50.19
2023-03-11T07:52:16.093Z,49.57
2023-03-11T07:57:17.732Z,48.85
2023-03-11T08:02:19.409Z,49.04
2023-03-11T08:07:53.638Z,49.03
2023-03-11T08:13:19.336Z,47.87
2023-03-11T08:18:29.407Z,47.70
2023-03-11T08:23:32.983Z,47.81
2023-03-11T08:28:36.946Z,47.80
2023-03-11T08:33:38.721Z,47.40
2023-03-11T08:38:40.938Z,47.02
2023-03-11T08:43:44.540Z,46.97
2023-03-11T08:48:46.364Z,47.30
2023-03-11T08:53:48.906Z,46.93
2023-03-11T08:58:51.088Z,47.07
2023-03-11T09:03:52.757Z,46.66
2023-03-11T09:08:54.433Z,46.45
2023-03-11T09:13:56.252Z,46.01
2023-03-11T09:19:00.358Z,47.02
2023-03-11T09:24:04.503Z,47.36
2023-03-11T09:29:06.323Z,46.33
2023-03-11T09:34:08.091Z,46.92
2023-03-11T09:39:10.075Z,46.34
2023-03-11T09:44:17.630Z,46.55
2023-03-11T09:49:50.296Z,46.44
2023-03-11T09:54:55.633Z,46.74
2023-03-11T09:59:58.025Z,46.12
2023-03-11T10:05:28.381Z,46.18
2023-03-11T10:10:38.392Z,45.96
2023-03-11T10:15:43.527Z,46.71
2023-03-11T10:20:49.128Z,47.28
2023-03-11T10:26:08.746Z,46.90
2023-03-11T10:31:20.203Z,46.22
2023-03-11T10:36:29.233Z,45.42
2023-03-11T10:41:58.032Z,45.06
2023-03-11T10:46:59.806Z,45.19
2023-03-11T10:52:04.079Z,45.76
2023-03-11T10:57:29.831Z,44.81
2023-03-11T11:02:49.451Z,44.78
2023-03-11T11:08:02.116Z,44.44
2023-03-11T11:13:13.164Z,44.94
2023-03-11T11:18:23.377Z,45.78
2023-03-11T11:23:39.611Z,45.99
2023-03-11T11:28:41.392Z,45.89
2023-03-11T11:33:52.481Z,45.51
2023-03-11T11:38:54.764Z,43.68
2023-03-11T11:44:00.301Z,44.76
2023-03-11T11:49:20.947Z,46.27
2023-03-11T11:54:43.076Z,44.87
2023-03-11T11:59:45.016Z,44.70
2023-03-11T12:05:06.271Z,45.31
2023-03-11T12:10:23.253Z,43.95
2023-03-11T12:15:33.836Z,43.92
2023-03-11T12:20:42.313Z,44.76
2023-03-11T12:25:55.307Z,44.66
2023-03-11T12:31:02.078Z,44.62
2023-03-11T12:36:05.597Z,44.31
2023-03-11T12:41:48.529Z,44.13
2023-03-11T12:46:59.400Z,44.96
2023-03-11T12:52:05.618Z,45.39
2023-03-11T12:57:16.450Z,45.48
2023-03-11T13:02:55.302Z,45.79
2023-03-11T13:08:09.954Z,46.48
2023-03-11T13:13:23.753Z,46.86
2023-03-11T13:18:27.968Z,46.90
2023-03-11T13:23:34.753Z,46.88
2023-03-11T13:28:39.312Z,47.14
2023-03-11T13:33:50.152Z,46.78
2023-03-11T13:39:31.518Z,47.23
2023-03-11T13:44:39.906Z,47.38
2023-03-11T13:50:03.251Z,48.13
2023-03-11T13:55:18.671Z,47.17
2023-03-11T14:00:27.955Z,47.54
2023-03-11T14:05:34.917Z,48.13
2023-03-11T14:10:36.609Z,48.43
2023-03-11T14:15:47.823Z,47.79
2023-03-11T14:20:50.094Z,47.06
2023-03-11T14:25:59.182Z,47.05
2023-03-11T14:31:03.092Z,46.54
2023-03-11T14:36:12.699Z,46.80
2023-03-11T14:41:15.595Z,47.11
2023-03-11T14:46:27.873Z,47.12
2023-03-11T14:51:33.446Z,47.21
2023-03-11T14:56:40.213Z,45.52
2023-03-11T15:01:44.581Z,45.44
2023-03-11T15:06:46.774Z,46.85
2023-03-11T15:11:58.164Z,47.07
2023-03-11T15:17:33.602Z,47.24
2023-03-11T15:22:40.906Z,48.44
2023-03-11T15:27:42.556Z,48.47
2023-03-11T15:32:45.146Z,47.14
2023-03-11T15:37:48.037Z,47.09
2023-03-11T15:43:07.284Z,47.47
2023-03-11T15:48:11.161Z,48.09
2023-03-11T15:53:12.750Z,47.32
2023-03-11T15:58:16.793Z,47.39
2023-03-11T16:03:19.150Z,47.79
2023-03-11T16:08:20.756Z,48.88
2023-03-11T16:13:22.397Z,49.64
2023-03-11T16:18:24.165Z,49.81
2023-03-11T16:23:30.740Z,49.49
2023-03-11T16:28:33.901Z,49.95
2023-03-11T16:33:38.593Z,50.88
2023-03-11T16:38:47.162Z,50.97
2023-03-11T16:43:48.923Z,50.43
2023-03-11T16:48:50.820Z,50.83
2023-03-11T16:53:52.493Z,51.61
2023-03-11T16:58:54.110Z,54.26
2023-03-11T17:03:55.762Z,56.91
2023-03-11T17:08:57.360Z,58.56
2023-03-11T17:14:13.940Z,58.77
2023-03-11T17:19:17.914Z,58.83
2023-03-11T17:24:19.630Z,57.76
2023-03-11T17:29:21.508Z,58.99
2023-03-11T17:34:23.500Z,59.26
2023-03-11T17:39:25.210Z,59.14
2023-03-11T17:44:26.816Z,59.37
2023-03-11T17:49:28.505Z,59.75
2023-03-11T17:54:30.120Z,59.95
2023-03-11T17:59:31.779Z,60.62
2023-03-11T18:04:33.443Z,60.54
2023-03-11T18:09:35.050Z,60.84
2023-03-11T18:14:36.944Z,60.80
2023-03-11T18:19:39.006Z,60.28
2023-03-11T18:24:40.617Z,60.20
2023-03-11T18:29:42.330Z,60.15
2023-03-11T18:34:44.152Z,60.42
2023-03-11T18:39:45.725Z,60.23
2023-03-11T18:44:47.333Z,59.93
2023-03-11T18:49:49.045Z,60.65
2023-03-11T18:54:50.606Z,59.85
2023-03-11T18:59:52.438Z,60.05
2023-03-11T19:04:54.401Z,59.83
2023-03-11T19:09:56.075Z,59.76
2023-03-11T19:14:57.850Z,60.15
2023-03-11T19:19:59.597Z,60.29
2023-03-11T19:25:01.412Z,60.02
2023-03-11T19:30:03.259Z,60.95
2023-03-11T19:35:05.730Z,61.14
2023-03-11T19:40:10.312Z,61.00
2023-03-11T19:45:13.031Z,61.31
2023-03-11T19:50:14.699Z,61.41
2023-03-11T19:55:16.709Z,61.92
2023-03-11T20:00:18.975Z,62.41
2023-03-11T20:05:20.757Z,62.66
2023-03-11T20:10:22.632Z,63.18
2023-03-11T20:15:24.449Z,63.38
2023-03-11T20:20:26.174Z,63.07
2023-03-11T20:25:29.662Z,63.86
2023-03-11T20:30:31.465Z,63.82
2023-03-11T20:35:33.448Z,64.28
2023-03-11T20:40:35.165Z,63.86
2023-03-11T20:45:36.908Z,64.40
2023-03-11T20:50:38.628Z,64.18
2023-03-11T20:55:43.140Z,64.46
2023-03-11T21:00:44.806Z,65.46
2023-03-11T21:05:46.428Z,65.27
2023-03-11T21:10:48.114Z,64.56
2023-03-11T21:15:49.862Z,65.53
2023-03-11T21:20:51.565Z,66.04
2023-03-11T21:26:00.944Z,66.18
2023-03-11T21:31:11.564Z,66.41
2023-03-11T21:36:17.452Z,66.02
2023-03-11T21:41:21.990Z,66.50
2023-03-11T21:46:26.958Z,66.36
2023-03-11T21:51:29.174Z,67.08
2023-03-11T21:56:30.845Z,66.93
2023-03-11T22:01:34.062Z,67.42
2023-03-11T22:06:35.817Z,67.26
2023-03-11T22:11:37.527Z,67.38
2023-03-11T22:16:39.217Z,67.77
2023-03-11T22:21:40.975Z,67.38
2023-03-11T22:26:42.585Z,68.32
2023-03-11T22:31:44.477Z,68.02
2023-03-11T22:36:46.102Z,67.86
2023-03-11T22:41:47.681Z,67.96
2023-03-11T22:46:49.253Z,68.40
2023-03-11T22:51:51.068Z,67.76
2023-03-11T22:56:52.685Z,68.01
2023-03-11T23:01:55.116Z,68.10
2023-03-11T23:06:56.683Z,68.40
2023-03-11T23:11:58.285Z,68.90
2023-03-11T23:16:59.931Z,68.73
2023-03-11T23:22:01.592Z,69.08
2023-03-11T23:27:04.877Z,68.97
2023-03-11T23:32:06.943Z,69.20
2023-03-11T23:37:08.877Z,69.39
2023-03-11T23:42:24.483Z,68.81
2023-03-11T23:47:27.570Z,69.98
2023-03-11T23:52:29.323Z,69.36
2023-03-11T23:57:30.996Z,69.05
